This is the latest recevied weather packets stored in our database for station/object DL1SEW-6. If no packets are shown the sender has not sent any weather packets the latest 10 day(s).
| Time | Temp. | Humidity | Pressure | Rain* | Wind** | Luminosity | Snow |
|---|---|---|---|---|---|---|---|
| 1778090106 | 10° C | 90% | 1007.2 hPa | 0.51 mm | - | 16 W/m² | - |
| 1778089206 | 10° C | 89% | 1007.1 hPa | 0.51 mm | - | 21 W/m² | - |
| 1778088307 | 10° C | 89% | 1006.7 hPa | 0.76 mm | - | 27 W/m² | - |
| 1778087405 | 10° C | 89% | 1006.7 hPa | 1.27 mm | - | 25 W/m² | - |
| 1778086506 | 10.56° C | 88% | 1006.7 hPa | 1.27 mm | - | 40 W/m² | - |
| 1778085606 | 10.56° C | 88% | 1006.8 hPa | 1.27 mm | - | 26 W/m² | - |
| 1778084706 | 10.56° C | 86% | 1006.8 hPa | 1.02 mm | - | 32 W/m² | - |
| 1778083805 | 11.11° C | 86% | 1006.9 hPa | 1.02 mm | - | 33 W/m² | - |
| 1778082905 | 11.67° C | 87% | 1006.8 hPa | 1.02 mm | - | 49 W/m² | - |
| 1778082006 | 11.67° C | 87% | 1006.7 hPa | 1.02 mm | - | 94 W/m² | - |
| 1778081104 | 11.67° C | 88% | 1006.4 hPa | 0.76 mm | - | 68 W/m² | - |
| 1778080207 | 11.67° C | 87% | 1006.4 hPa | 0.51 mm | - | 60 W/m² | - |
| 1778079306 | 12.22° C | 85% | 1006.2 hPa | 1.02 mm | - | 99 W/m² | - |
| 1778078404 | 12.22° C | 85% | 1006.1 hPa | 0.76 mm | - | 68 W/m² | - |
| 1778077503 | 12.22° C | 84% | 1005.9 hPa | 1.02 mm | - | 63 W/m² | - |
| 1778076603 | 12.78° C | 84% | 1005.8 hPa | 1.02 mm | - | 79 W/m² | - |
| 1778075704 | 12.78° C | 84% | 1005.7 hPa | 0.51 mm | - | 111 W/m² | - |
| 1778074803 | 12.78° C | 82% | 1005.8 hPa | 0.51 mm | - | 110 W/m² | - |
| 1778073903 | 12.78° C | 82% | 1006 hPa | 0.51 mm | - | 130 W/m² | - |
| 1778073003 | 13.33° C | 81% | 1005.7 hPa | 0.25 mm | - | 92 W/m² | - |
| 1778072104 | 13.33° C | 80% | 1005.6 hPa | 0.25 mm | - | 192 W/m² | - |
| 1778071203 | 13.89° C | 77% | 1005.6 hPa | 0 mm | - | 107 W/m² | - |
| 1778070302 | 13.89° C | 78% | 1005.5 hPa | 0.25 mm | - | 178 W/m² | - |
| 1778069402 | 13.89° C | 77% | 1005.5 hPa | 0.51 mm | - | 197 W/m² | - |
| 1778068507 | 13.33° C | 84% | 1005.4 hPa | 0.51 mm | - | 569 W/m² | - |
* Rain latest hour (hover to see other rain measurements)
** Current wind speed in m/s (hover to see current wind gust speed)